Terminal Aerodrome Forecast
Issued by NWS Pittsburgh, PA

Current Version | Previous Version | Graphics & Text | Print | Product List | Glossary On
Versions: 1 2 3 4 5 6 7 8 9 10 11 12 13 14 15 16 17 18 19 20 21 22 23 24 25 26 27 28 29 30 31 32 33 34 35 36 37
038
FTUS41 KPBZ 211456 AAA
TAFPIT
TAF AMD
KPIT 211456Z 2115/2218 11005KT P6SM SCT150
     FM220000 VRB03KT P6SM VCSH OVC050
     FM220500 13005KT 6SM -SHRA OVC035
     FM221300 20005KT 6SM -SHRA OVC025
     FM221700 23008KT 6SM -SHRA VCTS OVC025CB=

USA.gov is the U.S. government's official web portal to all federal, state and local government web resources and services.